Time;durP1;ratioP1;P1;durP2;ratioP2;P2;SDS_P1;SDS_P2;PMS_P1;PMS_P2;Temp;Humidity;BMP_temperature;BMP_pressure;BME280_temperature;BME280_humidity;BME280_pressure;Samples;Min_cycle;Max_cycle;Signal;HPM_P1;HPM_P2
2022/07/13 00:07:51;;;;;;;0.20;0.00;;;27.10;99.90;;;;;;25699127;23;20312;-67
2022/07/13 00:17:57;;;;;;;0.20;0.00;;;26.30;99.90;;;;;;25699738;23;20252;-68
2022/07/13 00:28:01;;;;;;;0.20;0.00;;;26.30;99.90;;;;;;25699742;23;20182;-68
2022/07/13 00:38:06;;;;;;;0.20;0.00;;;26.00;99.90;;;;;;25672969;23;20173;-68
2022/07/13 00:48:10;;;;;;;0.20;0.08;;;25.90;99.90;;;;;;25698301;23;20186;-68
2022/07/13 00:58:15;;;;;;;0.20;0.10;;;25.60;99.90;;;;;;25698180;23;20229;-68
2022/07/13 01:08:21;;;;;;;0.20;0.00;;;25.60;99.90;;;;;;25697877;23;20205;-69
2022/07/13 01:18:27;;;;;;;0.20;0.00;;;25.60;99.90;;;;;;25671891;23;20182;-69
2022/07/13 01:28:33;;;;;;;0.20;0.00;;;25.50;99.90;;;;;;25697400;23;20197;-68
2022/07/13 01:38:36;;;;;;;0.20;0.00;;;25.50;99.90;;;;;;25671548;23;20197;-68
2022/07/13 01:48:42;;;;;;;0.20;0.00;;;25.30;99.90;;;;;;25697045;23;20229;-69
2022/07/13 01:58:46;;;;;;;0.20;0.00;;;25.20;99.90;;;;;;25697217;23;20213;-68
2022/07/13 02:08:51;;;;;;;0.20;0.00;;;25.00;99.90;;;;;;25696963;23;20175;-67
2022/07/13 02:18:55;;;;;;;0.20;0.00;;;24.80;99.90;;;;;;25696613;23;20175;-68
2022/07/13 02:29:00;;;;;;;0.20;0.00;;;24.90;99.90;;;;;;25698740;23;20213;-67
2022/07/13 02:39:04;;;;;;;0.20;0.10;;;25.60;99.90;;;;;;25703400;23;20182;-68
2022/07/13 02:49:10;;;;;;;0.20;0.00;;;25.60;99.90;;;;;;25702945;23;20278;-68
2022/07/13 02:59:14;;;;;;;0.20;0.10;;;25.50;99.90;;;;;;25702007;23;20214;-68
2022/07/13 03:09:19;;;;;;;0.20;0.10;;;25.20;99.90;;;;;;25702554;23;20206;-69
2022/07/13 03:19:23;;;;;;;0.20;0.00;;;24.90;99.90;;;;;;25676888;23;20195;-69
2022/07/13 03:29:28;;;;;;;0.20;0.00;;;24.80;99.90;;;;;;25675934;23;20241;-69
2022/07/13 03:39:32;;;;;;;0.20;0.00;;;24.60;99.90;;;;;;25700829;23;20162;-67
2022/07/13 03:49:37;;;;;;;0.20;0.00;;;23.90;99.90;;;;;;25699722;23;20185;-68
2022/07/13 03:59:41;;;;;;;0.20;0.00;;;23.80;99.90;;;;;;25700239;23;20222;-69
2022/07/13 04:09:52;;;;;;;0.20;0.00;;;23.40;99.90;;;;;;25699985;23;20201;-69
2022/07/13 04:19:56;;;;;;;0.20;0.00;;;23.40;99.90;;;;;;25697864;23;20182;-69
2022/07/13 04:30:01;;;;;;;0.20;0.00;;;23.40;99.90;;;;;;25698552;23;20210;-69
2022/07/13 04:40:06;;;;;;;0.20;0.10;;;23.40;99.90;;;;;;25672506;23;20166;-69
2022/07/13 04:50:11;;;;;;;0.20;0.00;;;23.70;99.90;;;;;;25697231;23;20205;-68
2022/07/13 05:00:16;;;;;;;0.20;0.00;;;23.70;99.90;;;;;;25669212;23;20221;-68
2022/07/13 05:10:21;;;;;;;0.20;0.00;;;23.80;99.90;;;;;;25696013;23;20221;-69
2022/07/13 05:20:25;;;;;;;0.20;0.00;;;23.90;99.90;;;;;;25670577;23;20201;-69
2022/07/13 05:30:30;;;;;;;0.20;0.00;;;24.00;99.90;;;;;;25694287;23;20201;-67
2022/07/13 05:40:34;;;;;;;0.20;0.00;;;24.30;99.90;;;;;;25694711;23;20166;-68
2022/07/13 05:50:39;;;;;;;0.20;0.00;;;24.60;99.90;;;;;;25693728;23;20267;-68
2022/07/13 06:00:43;;;;;;;0.20;0.00;;;25.10;99.90;;;;;;25667674;23;20198;-70
2022/07/13 06:10:48;;;;;;;0.20;0.10;;;25.40;99.90;;;;;;25675705;23;20190;-69
2022/07/13 06:20:52;;;;;;;0.20;0.03;;;26.00;99.90;;;;;;25700461;23;20185;-69
2022/07/13 06:30:58;;;;;;;0.20;0.00;;;26.50;99.90;;;;;;25699986;23;20354;-67
2022/07/13 06:41:02;;;;;;;0.20;0.10;;;26.90;99.90;;;;;;25699854;23;20155;-68
2022/07/13 06:51:07;;;;;;;0.20;0.00;;;27.30;99.90;;;;;;25697944;23;20242;-66
2022/07/13 07:01:11;;;;;;;0.20;0.00;;;27.60;99.90;;;;;;25695722;23;20276;-67
2022/07/13 07:11:16;;;;;;;0.20;0.00;;;27.90;99.90;;;;;;25669912;23;20198;-68
2022/07/13 07:21:20;;;;;;;0.20;0.00;;;27.90;99.90;;;;;;25669310;23;20174;-67
2022/07/13 07:31:26;;;;;;;0.20;0.00;;;27.90;99.90;;;;;;25696217;23;20249;-68
2022/07/13 07:41:29;;;;;;;0.20;0.10;;;28.10;99.90;;;;;;25670581;23;20177;-68
2022/07/13 07:51:35;;;;;;;0.20;0.00;;;27.90;99.90;;;;;;25695464;23;20186;-68
2022/07/13 08:01:59;;;;;;;0.20;0.00;;;27.80;99.90;;;;;;25694211;23;20202;-70
2022/07/13 08:12:04;;;;;;;0.20;0.00;;;27.60;99.90;;;;;;25694176;23;20197;-70
2022/07/13 08:22:08;;;;;;;0.20;0.00;;;27.50;99.90;;;;;;25669391;23;20166;-70
2022/07/13 08:32:13;;;;;;;0.20;0.00;;;27.40;99.90;;;;;;25692225;23;20257;-70
2022/07/13 08:42:17;;;;;;;0.20;0.00;;;27.40;99.90;;;;;;25693063;23;20166;-68
2022/07/13 08:52:23;;;;;;;0.20;0.10;;;27.70;99.90;;;;;;25691669;23;20181;-69
2022/07/13 09:02:26;;;;;;;0.20;0.00;;;27.70;99.90;;;;;;25662576;23;20214;-68
2022/07/13 09:12:32;;;;;;;0.20;0.10;;;27.80;99.90;;;;;;25681266;23;20194;-69
2022/07/13 09:22:46;;;;;;;0.20;0.00;;;27.80;99.90;;;;;;25681020;23;20155;-69
2022/07/13 09:32:52;;;;;;;0.20;0.00;;;28.10;99.90;;;;;;25680585;23;20274;-68
2022/07/13 09:53:29;;;;;;;0.20;0.00;;;28.40;99.90;;;;;;25686577;23;20249;-68
2022/07/13 10:03:33;;;;;;;0.20;0.10;;;28.40;99.90;;;;;;25688866;23;20194;-68
2022/07/13 10:13:39;;;;;;;0.20;0.00;;;28.80;99.90;;;;;;25661854;23;20186;-70
2022/07/13 10:23:43;;;;;;;0.20;0.00;;;28.80;99.90;;;;;;25687272;23;20198;-69
2022/07/13 10:33:51;;;;;;;0.20;0.00;;;29.00;99.90;;;;;;25685780;23;20233;-67
2022/07/13 10:43:55;;;;;;;0.20;0.00;;;29.60;99.90;;;;;;25659363;23;20844;-69
2022/07/13 10:54:10;;;;;;;0.20;0.00;;;29.60;99.90;;;;;;25659266;23;20203;-69
2022/07/13 11:04:16;;;;;;;0.20;0.00;;;29.80;99.90;;;;;;25685339;23;20197;-69
2022/07/13 11:15:00;;;;;;;0.20;0.00;;;30.50;99.90;;;;;;25656056;23;20205;-70
2022/07/13 11:25:23;;;;;;;0.20;0.00;;;30.90;99.90;;;;;;25685359;23;20166;-70
2022/07/13 11:35:27;;;;;;;0.20;0.00;;;31.50;99.90;;;;;;25684800;23;20189;-70
2022/07/13 11:45:33;;;;;;;0.20;0.10;;;31.80;99.90;;;;;;25657527;23;20173;-70
2022/07/13 11:55:37;;;;;;;0.20;0.00;;;32.50;99.90;;;;;;25654878;23;20202;-69
2022/07/13 12:05:45;;;;;;;0.20;0.00;;;32.20;99.90;;;;;;25679919;23;20282;-70
2022/07/13 12:15:49;;;;;;;0.20;0.00;;;32.20;99.90;;;;;;25678704;23;20185;-69
2022/07/13 12:26:07;;;;;;;0.20;0.00;;;32.70;99.90;;;;;;25677424;23;20174;-67
2022/07/13 12:36:12;;;;;;;0.20;0.00;;;33.30;99.90;;;;;;25680012;23;20282;-67
2022/07/13 12:46:17;;;;;;;0.20;0.00;;;33.00;99.90;;;;;;25653374;23;21136;-67
2022/07/13 12:56:28;;;;;;;0.20;0.00;;;33.10;99.90;;;;;;25679357;23;20193;-68
2022/07/13 13:06:33;;;;;;;0.20;0.00;;;33.00;99.90;;;;;;25676317;23;20261;-68
2022/07/13 13:16:38;;;;;;;0.20;0.00;;;33.00;99.90;;;;;;25677937;23;20282;-69
2022/07/13 13:26:45;;;;;;;0.20;0.00;;;33.90;99.90;;;;;;25678928;23;20226;-68
2022/07/13 13:37:09;;;;;;;0.20;0.00;;;35.30;99.90;;;;;;25679301;23;20186;-67
2022/07/13 13:47:14;;;;;;;0.20;0.00;;;34.60;99.90;;;;;;25677714;23;20170;-68
2022/07/13 13:57:18;;;;;;;0.20;0.00;;;33.50;99.90;;;;;;25624889;23;20217;-68
2022/07/13 14:07:23;;;;;;;0.20;0.00;;;33.50;99.90;;;;;;25676176;23;20321;-69
2022/07/13 14:17:27;;;;;;;0.20;0.00;;;33.20;99.90;;;;;;25676162;23;20332;-69
2022/07/13 14:27:32;;;;;;;0.38;0.38;;;32.80;99.90;;;;;;25653226;23;20186;-67
2022/07/13 14:37:37;;;;;;;0.38;0.38;;;33.40;99.90;;;;;;25681770;23;20242;-68
2022/07/13 14:47:43;;;;;;;0.20;0.00;;;35.00;99.90;;;;;;25684388;23;20250;-70
2022/07/13 14:58:05;;;;;;;0.20;0.00;;;35.10;99.90;;;;;;25684279;23;20256;-69
2022/07/13 15:08:10;;;;;;;0.20;0.00;;;33.60;99.90;;;;;;25656820;23;20193;-70
2022/07/13 15:18:14;;;;;;;0.20;0.00;;;34.40;99.90;;;;;;25656571;23;20237;-68
2022/07/13 15:28:19;;;;;;;0.20;0.00;;;34.60;99.90;;;;;;25660677;23;20176;-69
2022/07/13 15:38:23;;;;;;;0.20;0.00;;;33.10;99.90;;;;;;25683602;23;20272;-70
2022/07/13 15:48:29;;;;;;;0.20;0.00;;;34.70;99.90;;;;;;25681176;23;20166;-69
2022/07/13 15:58:32;;;;;;;0.20;0.00;;;33.70;99.90;;;;;;25680901;23;20225;-70
2022/07/13 16:08:38;;;;;;;0.20;0.00;;;32.60;99.90;;;;;;25683004;23;20166;-69
2022/07/13 16:18:42;;;;;;;0.20;0.00;;;32.70;99.90;;;;;;25662896;23;20273;-69
2022/07/13 16:28:48;;;;;;;0.20;0.00;;;31.60;99.90;;;;;;25664609;23;20186;-69
2022/07/13 16:38:51;;;;;;;0.20;0.00;;;31.00;99.90;;;;;;25690384;23;20189;-71
2022/07/13 16:48:57;;;;;;;0.20;0.00;;;31.30;99.90;;;;;;25665401;23;20230;-71
2022/07/13 16:59:01;;;;;;;0.20;0.00;;;30.90;99.90;;;;;;25692415;23;20220;-72
2022/07/13 17:09:06;;;;;;;0.20;0.00;;;31.10;99.90;;;;;;25688344;23;20249;-70
2022/07/13 17:19:10;;;;;;;0.20;0.00;;;31.30;99.90;;;;;;25659863;23;20190;-70
2022/07/13 17:29:16;;;;;;;0.20;0.00;;;32.00;99.90;;;;;;25634971;23;20182;-70
2022/07/13 17:39:20;;;;;;;0.20;0.10;;;31.60;99.90;;;;;;25687766;23;20158;-70
2022/07/13 17:49:25;;;;;;;0.20;0.00;;;31.90;99.90;;;;;;25686741;23;20194;-69
2022/07/13 17:59:29;;;;;;;0.20;0.00;;;31.80;99.90;;;;;;25663241;23;20194;-68
2022/07/13 18:09:34;;;;;;;0.20;0.10;;;31.90;99.90;;;;;;25668849;23;20190;-68
2022/07/13 18:19:38;;;;;;;0.20;0.00;;;31.70;99.90;;;;;;25693596;23;20146;-69
2022/07/13 18:29:43;;;;;;;0.20;0.00;;;31.00;99.90;;;;;;25667347;23;20194;-68
2022/07/13 18:39:47;;;;;;;0.20;0.10;;;31.50;99.90;;;;;;25693726;23;20157;-69
2022/07/13 18:49:53;;;;;;;0.20;0.00;;;30.60;99.90;;;;;;25690953;23;20205;-66
2022/07/13 18:59:56;;;;;;;0.20;0.00;;;30.50;99.90;;;;;;25666625;23;20298;-69
2022/07/13 19:10:01;;;;;;;0.20;0.00;;;28.90;99.90;;;;;;25665394;23;20237;-69
2022/07/13 19:20:06;;;;;;;0.20;0.00;;;28.40;99.90;;;;;;25691154;23;20186;-69
2022/07/13 19:30:11;;;;;;;0.20;0.00;;;28.10;99.90;;;;;;25660043;23;20291;-69
2022/07/13 19:40:15;;;;;;;0.20;0.00;;;27.90;99.90;;;;;;25664506;23;20173;-69
2022/07/13 19:50:21;;;;;;;0.20;0.00;;;27.70;99.90;;;;;;25664652;23;20218;-68
2022/07/13 20:00:26;;;;;;;0.20;0.00;;;27.60;99.90;;;;;;25689108;23;20202;-69
2022/07/13 20:10:32;;;;;;;0.20;0.00;;;27.50;99.90;;;;;;25692178;23;20190;-70
2022/07/13 20:20:37;;;;;;;0.20;0.00;;;27.40;99.90;;;;;;25688871;23;20186;-70
2022/07/13 20:30:43;;;;;;;0.20;0.00;;;27.20;99.90;;;;;;25689095;23;20246;-71
2022/07/13 20:40:48;;;;;;;0.20;0.00;;;27.20;99.90;;;;;;25663814;23;20166;-70
2022/07/13 20:50:53;;;;;;;0.20;0.00;;;27.10;99.90;;;;;;25667875;23;20182;-70
2022/07/13 21:00:57;;;;;;;0.20;0.00;;;26.80;99.90;;;;;;25694561;23;20240;-69
2022/07/13 21:11:07;;;;;;;0.20;0.00;;;26.60;99.90;;;;;;25694176;23;20186;-69
2022/07/13 21:21:11;;;;;;;0.20;0.00;;;26.40;99.90;;;;;;25693604;23;20189;-70
2022/07/13 21:31:17;;;;;;;0.20;0.10;;;26.20;99.90;;;;;;25693180;23;20198;-68
2022/07/13 21:41:20;;;;;;;0.20;0.00;;;25.80;99.90;;;;;;25702492;23;20154;-65
2022/07/13 21:51:26;;;;;;;0.20;0.00;;;25.90;99.90;;;;;;25677235;23;20257;-69
2022/07/13 22:01:30;;;;;;;0.20;0.00;;;25.70;99.90;;;;;;25674968;23;20213;-71
2022/07/13 22:12:11;;;;;;;0.20;0.00;;;25.40;99.90;;;;;;25700822;23;20194;-71
2022/07/13 22:22:52;;;;;;;0.20;0.10;;;25.30;99.90;;;;;;25702763;23;20166;-71
2022/07/13 22:33:34;;;;;;;0.20;0.00;;;25.10;99.90;;;;;;25701122;23;20277;-71
2022/07/13 22:44:16;;;;;;;0.20;0.00;;;25.10;99.90;;;;;;25700696;23;20170;-71
2022/07/13 22:54:57;;;;;;;0.20;0.00;;;25.00;99.90;;;;;;25701236;23;20196;-71
2022/07/13 23:05:39;;;;;;;0.20;0.00;;;25.00;99.90;;;;;;25700899;23;20212;-69
2022/07/13 23:16:20;;;;;;;0.20;0.00;;;25.00;99.90;;;;;;25698089;23;20201;-70
2022/07/13 23:27:02;;;;;;;0.20;0.00;;;24.90;99.90;;;;;;25700144;23;20173;-70
2022/07/13 23:37:10;;;;;;;0.20;0.10;;;24.60;99.90;;;;;;25699203;23;20198;-70
2022/07/13 23:47:14;;;;;;;0.20;0.00;;;24.70;99.90;;;;;;25699751;23;20162;-70
2022/07/13 23:57:19;;;;;;;0.20;0.00;;;24.50;99.90;;;;;;25699161;23;20233;-69
